sensor_id;sensor_type;location;lat;lon;timestamp;pressure;altitude;pressure_sealevel;temperature;humidity
9335;BME280;4706;41.844;26.082;2023-11-22T00:00:02;100132.38;;;13.94;99.18
9335;BME280;4706;41.844;26.082;2023-11-22T00:02:28;100150.03;;;13.81;100.00
9335;BME280;4706;41.844;26.082;2023-11-22T00:04:55;100145.47;;;13.76;100.00
9335;BME280;4706;41.844;26.082;2023-11-22T00:07:20;100135.00;;;13.91;99.27
9335;BME280;4706;41.844;26.082;2023-11-22T00:09:47;100138.63;;;13.82;100.00
9335;BME280;4706;41.844;26.082;2023-11-22T00:12:13;100141.47;;;13.95;98.92
9335;BME280;4706;41.844;26.082;2023-11-22T00:14:38;100138.69;;;13.65;100.00
9335;BME280;4706;41.844;26.082;2023-11-22T00:17:04;100135.09;;;13.73;100.00
9335;BME280;4706;41.844;26.082;2023-11-22T00:19:30;100139.53;;;13.66;100.00
9335;BME280;4706;41.844;26.082;2023-11-22T00:21:56;100133.84;;;13.62;100.00
9335;BME280;4706;41.844;26.082;2023-11-22T00:24:21;100130.53;;;13.77;100.00
9335;BME280;4706;41.844;26.082;2023-11-22T00:26:47;100135.66;;;13.88;100.00
9335;BME280;4706;41.844;26.082;2023-11-22T00:29:12;100127.22;;;13.84;100.00
9335;BME280;4706;41.844;26.082;2023-11-22T00:31:38;100139.03;;;13.64;100.00
9335;BME280;4706;41.844;26.082;2023-11-22T00:34:04;100128.78;;;13.64;100.00
9335;BME280;4706;41.844;26.082;2023-11-22T00:36:30;100129.44;;;13.61;100.00
9335;BME280;4706;41.844;26.082;2023-11-22T00:38:55;100133.22;;;13.56;100.00
9335;BME280;4706;41.844;26.082;2023-11-22T00:41:21;100151.00;;;13.76;100.00
9335;BME280;4706;41.844;26.082;2023-11-22T00:43:46;100142.16;;;13.62;100.00
9335;BME280;4706;41.844;26.082;2023-11-22T00:46:13;100145.16;;;13.78;100.00
9335;BME280;4706;41.844;26.082;2023-11-22T00:48:38;100146.63;;;13.75;100.00
9335;BME280;4706;41.844;26.082;2023-11-22T00:51:04;100152.19;;;13.67;100.00
9335;BME280;4706;41.844;26.082;2023-11-22T00:53:34;100146.88;;;13.62;100.00
9335;BME280;4706;41.844;26.082;2023-11-22T00:56:02;100150.25;;;13.67;100.00
9335;BME280;4706;41.844;26.082;2023-11-22T00:58:27;100161.97;;;13.94;100.00
9335;BME280;4706;41.844;26.082;2023-11-22T01:00:53;100148.78;;;13.99;100.00
9335;BME280;4706;41.844;26.082;2023-11-22T01:03:19;100149.41;;;14.05;99.85
9335;BME280;4706;41.844;26.082;2023-11-22T01:05:44;100147.88;;;13.87;100.00
9335;BME280;4706;41.844;26.082;2023-11-22T01:08:12;100141.25;;;13.79;100.00
9335;BME280;4706;41.844;26.082;2023-11-22T01:10:39;100138.47;;;13.79;100.00
9335;BME280;4706;41.844;26.082;2023-11-22T01:13:04;100128.13;;;13.67;100.00
9335;BME280;4706;41.844;26.082;2023-11-22T01:15:30;100142.84;;;13.89;100.00
9335;BME280;4706;41.844;26.082;2023-11-22T01:17:55;100133.28;;;13.77;100.00
9335;BME280;4706;41.844;26.082;2023-11-22T01:20:21;100133.88;;;13.92;100.00
9335;BME280;4706;41.844;26.082;2023-11-22T01:22:49;100123.75;;;13.96;100.00
9335;BME280;4706;41.844;26.082;2023-11-22T01:25:14;100124.38;;;14.01;100.00
9335;BME280;4706;41.844;26.082;2023-11-22T01:27:40;100125.94;;;14.11;100.00
9335;BME280;4706;41.844;26.082;2023-11-22T01:30:07;100105.06;;;13.93;100.00
9335;BME280;4706;41.844;26.082;2023-11-22T01:32:33;100104.88;;;13.98;100.00
9335;BME280;4706;41.844;26.082;2023-11-22T01:35:00;100108.78;;;13.67;100.00
9335;BME280;4706;41.844;26.082;2023-11-22T01:37:26;100108.78;;;13.67;100.00
9335;BME280;4706;41.844;26.082;2023-11-22T01:39:52;100102.22;;;13.80;100.00
9335;BME280;4706;41.844;26.082;2023-11-22T01:42:20;100103.25;;;13.67;100.00
9335;BME280;4706;41.844;26.082;2023-11-22T01:44:46;100111.13;;;13.86;100.00
9335;BME280;4706;41.844;26.082;2023-11-22T01:47:13;100107.84;;;13.93;100.00
9335;BME280;4706;41.844;26.082;2023-11-22T01:49:39;100086.59;;;13.84;100.00
9335;BME280;4706;41.844;26.082;2023-11-22T01:52:05;100093.00;;;13.97;100.00
9335;BME280;4706;41.844;26.082;2023-11-22T01:54:32;100087.84;;;13.87;100.00
9335;BME280;4706;41.844;26.082;2023-11-22T01:56:58;100080.22;;;13.84;100.00
9335;BME280;4706;41.844;26.082;2023-11-22T01:59:26;100088.81;;;13.91;100.00
9335;BME280;4706;41.844;26.082;2023-11-22T02:01:53;100081.16;;;13.97;100.00
9335;BME280;4706;41.844;26.082;2023-11-22T02:04:19;100085.91;;;13.88;100.00
9335;BME280;4706;41.844;26.082;2023-11-22T02:06:46;100073.38;;;13.90;100.00
9335;BME280;4706;41.844;26.082;2023-11-22T02:09:12;100088.03;;;14.12;100.00
9335;BME280;4706;41.844;26.082;2023-11-22T02:11:41;100075.81;;;13.92;100.00
9335;BME280;4706;41.844;26.082;2023-11-22T02:14:08;100093.81;;;13.98;100.00
9335;BME280;4706;41.844;26.082;2023-11-22T02:16:34;100083.66;;;14.11;100.00
9335;BME280;4706;41.844;26.082;2023-11-22T02:19:00;100081.50;;;14.16;100.00
9335;BME280;4706;41.844;26.082;2023-11-22T02:21:26;100079.81;;;14.03;100.00
9335;BME280;4706;41.844;26.082;2023-11-22T02:23:51;100087.75;;;14.04;100.00
9335;BME280;4706;41.844;26.082;2023-11-22T02:26:17;100078.50;;;14.21;100.00
9335;BME280;4706;41.844;26.082;2023-11-22T02:28:44;100064.47;;;14.05;100.00
9335;BME280;4706;41.844;26.082;2023-11-22T02:31:09;100090.72;;;14.20;100.00
9335;BME280;4706;41.844;26.082;2023-11-22T02:33:35;100083.72;;;14.23;100.00
9335;BME280;4706;41.844;26.082;2023-11-22T02:36:01;100082.16;;;14.34;100.00
9335;BME280;4706;41.844;26.082;2023-11-22T02:38:28;100085.75;;;14.34;100.00
9335;BME280;4706;41.844;26.082;2023-11-22T02:40:53;100091.22;;;14.22;100.00
9335;BME280;4706;41.844;26.082;2023-11-22T02:43:19;100091.22;;;14.22;100.00
9335;BME280;4706;41.844;26.082;2023-11-22T02:45:45;100096.94;;;14.17;100.00
9335;BME280;4706;41.844;26.082;2023-11-22T02:48:11;100095.44;;;14.20;100.00
9335;BME280;4706;41.844;26.082;2023-11-22T02:50:38;100096.06;;;14.25;100.00
9335;BME280;4706;41.844;26.082;2023-11-22T02:53:05;100087.66;;;14.22;100.00
9335;BME280;4706;41.844;26.082;2023-11-22T02:55:30;100080.59;;;14.24;100.00
9335;BME280;4706;41.844;26.082;2023-11-22T02:57:56;100075.28;;;14.19;100.00
9335;BME280;4706;41.844;26.082;2023-11-22T03:00:21;100068.16;;;14.18;100.00
9335;BME280;4706;41.844;26.082;2023-11-22T03:02:48;100062.66;;;14.30;100.00
9335;BME280;4706;41.844;26.082;2023-11-22T03:05:22;100071.09;;;14.34;100.00
9335;BME280;4706;41.844;26.082;2023-11-22T03:07:48;100068.75;;;14.45;99.71
9335;BME280;4706;41.844;26.082;2023-11-22T03:10:16;100077.31;;;14.31;100.00
9335;BME280;4706;41.844;26.082;2023-11-22T03:12:43;100081.41;;;14.25;100.00
9335;BME280;4706;41.844;26.082;2023-11-22T03:15:09;100091.63;;;14.33;100.00
9335;BME280;4706;41.844;26.082;2023-11-22T03:17:34;100090.41;;;14.22;100.00
9335;BME280;4706;41.844;26.082;2023-11-22T03:20:00;100096.75;;;14.22;100.00
9335;BME280;4706;41.844;26.082;2023-11-22T03:22:27;100089.13;;;14.19;100.00
9335;BME280;4706;41.844;26.082;2023-11-22T03:24:56;100072.03;;;14.17;100.00
9335;BME280;4706;41.844;26.082;2023-11-22T03:27:21;100080.19;;;14.14;100.00
9335;BME280;4706;41.844;26.082;2023-11-22T03:29:48;100097.94;;;14.13;100.00
9335;BME280;4706;41.844;26.082;2023-11-22T03:32:14;100096.34;;;14.12;100.00
9335;BME280;4706;41.844;26.082;2023-11-22T03:34:40;100077.84;;;14.03;100.00
9335;BME280;4706;41.844;26.082;2023-11-22T03:37:05;100100.72;;;14.13;100.00
9335;BME280;4706;41.844;26.082;2023-11-22T03:39:31;100098.75;;;14.13;100.00
9335;BME280;4706;41.844;26.082;2023-11-22T03:41:56;100102.19;;;14.10;100.00
9335;BME280;4706;41.844;26.082;2023-11-22T03:44:22;100096.66;;;14.10;100.00
9335;BME280;4706;41.844;26.082;2023-11-22T03:46:48;100104.94;;;14.10;100.00
9335;BME280;4706;41.844;26.082;2023-11-22T03:49:14;100098.59;;;14.09;100.00
9335;BME280;4706;41.844;26.082;2023-11-22T03:51:42;100107.41;;;14.12;100.00
9335;BME280;4706;41.844;26.082;2023-11-22T03:54:08;100108.78;;;14.18;99.99
9335;BME280;4706;41.844;26.082;2023-11-22T03:56:35;100112.13;;;14.11;100.00
9335;BME280;4706;41.844;26.082;2023-11-22T03:59:00;100120.56;;;14.15;100.00
9335;BME280;4706;41.844;26.082;2023-11-22T04:01:26;100112.13;;;14.11;100.00
9335;BME280;4706;41.844;26.082;2023-11-22T04:03:52;100131.78;;;14.09;99.91
9335;BME280;4706;41.844;26.082;2023-11-22T04:06:19;100114.03;;;13.90;100.00
9335;BME280;4706;41.844;26.082;2023-11-22T04:08:45;100126.97;;;13.77;100.00
9335;BME280;4706;41.844;26.082;2023-11-22T04:11:12;100128.22;;;13.79;100.00
9335;BME280;4706;41.844;26.082;2023-11-22T04:13:37;100129.03;;;13.80;100.00
9335;BME280;4706;41.844;26.082;2023-11-22T04:16:04;100126.28;;;13.80;100.00
9335;BME280;4706;41.844;26.082;2023-11-22T04:18:30;100123.03;;;13.78;100.00
9335;BME280;4706;41.844;26.082;2023-11-22T04:20:55;100127.63;;;13.74;100.00
9335;BME280;4706;41.844;26.082;2023-11-22T04:23:23;100137.81;;;13.82;100.00
9335;BME280;4706;41.844;26.082;2023-11-22T04:25:49;100127.28;;;13.75;100.00
9335;BME280;4706;41.844;26.082;2023-11-22T04:28:15;100132.50;;;13.77;100.00
9335;BME280;4706;41.844;26.082;2023-11-22T04:30:40;100140.59;;;13.82;100.00
9335;BME280;4706;41.844;26.082;2023-11-22T04:33:07;100135.41;;;13.80;100.00
9335;BME280;4706;41.844;26.082;2023-11-22T04:35:32;100146.72;;;13.88;100.00
9335;BME280;4706;41.844;26.082;2023-11-22T04:38:02;100144.94;;;13.92;100.00
9335;BME280;4706;41.844;26.082;2023-11-22T04:40:29;100144.50;;;13.81;100.00
9335;BME280;4706;41.844;26.082;2023-11-22T04:42:55;100158.28;;;13.90;100.00
9335;BME280;4706;41.844;26.082;2023-11-22T04:45:21;100155.06;;;13.79;100.00
9335;BME280;4706;41.844;26.082;2023-11-22T04:47:46;100172.00;;;13.77;100.00
9335;BME280;4706;41.844;26.082;2023-11-22T04:50:12;100149.25;;;13.72;100.00
9335;BME280;4706;41.844;26.082;2023-11-22T04:52:38;100152.66;;;13.77;100.00
9335;BME280;4706;41.844;26.082;2023-11-22T04:55:03;100121.50;;;13.59;100.00
9335;BME280;4706;41.844;26.082;2023-11-22T04:57:30;100156.22;;;13.78;99.51
9335;BME280;4706;41.844;26.082;2023-11-22T04:59:55;100154.91;;;13.75;99.14
9335;BME280;4706;41.844;26.082;2023-11-22T05:02:20;100167.72;;;13.80;98.13
9335;BME280;4706;41.844;26.082;2023-11-22T05:04:46;100171.03;;;13.73;97.95
9335;BME280;4706;41.844;26.082;2023-11-22T05:07:14;100163.91;;;13.64;98.42
9335;BME280;4706;41.844;26.082;2023-11-22T05:09:41;100178.72;;;13.59;97.71
9335;BME280;4706;41.844;26.082;2023-11-22T05:12:06;100172.19;;;13.64;96.41
9335;BME280;4706;41.844;26.082;2023-11-22T05:14:32;100153.56;;;13.52;96.86
9335;BME280;4706;41.844;26.082;2023-11-22T05:16:57;100169.28;;;13.60;96.11
9335;BME280;4706;41.844;26.082;2023-11-22T05:19:24;100167.84;;;13.54;95.78
9335;BME280;4706;41.844;26.082;2023-11-22T05:21:49;100191.09;;;13.53;95.45
9335;BME280;4706;41.844;26.082;2023-11-22T05:24:15;100198.09;;;13.50;95.72
9335;BME280;4706;41.844;26.082;2023-11-22T05:26:40;100187.06;;;13.50;94.56
9335;BME280;4706;41.844;26.082;2023-11-22T05:29:06;100190.09;;;13.57;94.23
9335;BME280;4706;41.844;26.082;2023-11-22T05:31:31;100197.91;;;13.55;94.12
9335;BME280;4706;41.844;26.082;2023-11-22T05:33:57;100201.97;;;13.58;92.90
9335;BME280;4706;41.844;26.082;2023-11-22T05:36:23;100207.03;;;13.47;92.84
9335;BME280;4706;41.844;26.082;2023-11-22T05:38:48;100208.16;;;13.46;92.96
9335;BME280;4706;41.844;26.082;2023-11-22T05:41:15;100211.41;;;13.48;93.43
9335;BME280;4706;41.844;26.082;2023-11-22T05:43:41;100221.47;;;13.53;92.21
9335;BME280;4706;41.844;26.082;2023-11-22T05:46:08;100212.72;;;13.42;92.36
9335;BME280;4706;41.844;26.082;2023-11-22T05:48:33;100214.38;;;13.43;91.54
9335;BME280;4706;41.844;26.082;2023-11-22T05:50:59;100191.47;;;13.34;91.67
9335;BME280;4706;41.844;26.082;2023-11-22T05:53:25;100197.47;;;13.45;91.59
9335;BME280;4706;41.844;26.082;2023-11-22T05:55:50;100199.75;;;13.43;91.66
9335;BME280;4706;41.844;26.082;2023-11-22T05:58:17;100200.41;;;13.40;91.47
9335;BME280;4706;41.844;26.082;2023-11-22T06:00:43;100209.97;;;13.51;90.57
9335;BME280;4706;41.844;26.082;2023-11-22T06:03:10;100192.28;;;13.43;90.31
9335;BME280;4706;41.844;26.082;2023-11-22T06:05:36;100190.66;;;13.33;90.59
9335;BME280;4706;41.844;26.082;2023-11-22T06:08:02;100197.47;;;13.36;90.16
9335;BME280;4706;41.844;26.082;2023-11-22T06:10:27;100203.16;;;13.40;89.56
9335;BME280;4706;41.844;26.082;2023-11-22T06:12:53;100202.66;;;13.38;88.30
9335;BME280;4706;41.844;26.082;2023-11-22T06:15:18;100197.19;;;13.29;88.84
9335;BME280;4706;41.844;26.082;2023-11-22T06:17:47;100223.28;;;13.49;88.31
9335;BME280;4706;41.844;26.082;2023-11-22T06:20:14;100220.84;;;13.39;88.94
9335;BME280;4706;41.844;26.082;2023-11-22T06:22:40;100211.44;;;13.31;89.27
9335;BME280;4706;41.844;26.082;2023-11-22T06:25:13;100226.22;;;13.35;90.42
9335;BME280;4706;41.844;26.082;2023-11-22T06:27:39;100215.19;;;13.35;90.38
9335;BME280;4706;41.844;26.082;2023-11-22T06:30:06;100229.31;;;13.42;90.29
9335;BME280;4706;41.844;26.082;2023-11-22T06:32:32;100229.31;;;13.42;91.17
9335;BME280;4706;41.844;26.082;2023-11-22T06:34:58;100243.13;;;13.51;90.67
9335;BME280;4706;41.844;26.082;2023-11-22T06:37:24;100247.00;;;13.50;90.76
9335;BME280;4706;41.844;26.082;2023-11-22T06:39:49;100257.91;;;13.55;90.54
9335;BME280;4706;41.844;26.082;2023-11-22T06:42:16;100256.25;;;13.54;90.46
9335;BME280;4706;41.844;26.082;2023-11-22T06:44:42;100260.00;;;13.49;90.94
9335;BME280;4706;41.844;26.082;2023-11-22T06:47:08;100258.38;;;13.66;90.46
9335;BME280;4706;41.844;26.082;2023-11-22T06:49:34;100243.59;;;13.62;90.42
9335;BME280;4706;41.844;26.082;2023-11-22T06:52:00;100248.94;;;13.67;89.96
9335;BME280;4706;41.844;26.082;2023-11-22T06:54:26;100254.25;;;13.72;90.23
9335;BME280;4706;41.844;26.082;2023-11-22T06:56:51;100251.03;;;13.70;90.31
9335;BME280;4706;41.844;26.082;2023-11-22T06:59:17;100265.47;;;13.75;90.46
9335;BME280;4706;41.844;26.082;2023-11-22T07:01:44;100267.75;;;13.82;90.25
9335;BME280;4706;41.844;26.082;2023-11-22T07:04:09;100248.94;;;13.67;90.99
9335;BME280;4706;41.844;26.082;2023-11-22T07:06:35;100266.78;;;13.78;91.23
9335;BME280;4706;41.844;26.082;2023-11-22T07:09:03;100278.34;;;13.71;91.04
9335;BME280;4706;41.844;26.082;2023-11-22T07:11:29;100280.59;;;13.78;90.09
9335;BME280;4706;41.844;26.082;2023-11-22T07:13:56;100280.63;;;13.69;90.47
9335;BME280;4706;41.844;26.082;2023-11-22T07:16:23;100293.47;;;13.74;89.12
9335;BME280;4706;41.844;26.082;2023-11-22T07:18:50;100305.47;;;13.78;88.94
9335;BME280;4706;41.844;26.082;2023-11-22T07:21:16;100302.75;;;13.69;89.24
9335;BME280;4706;41.844;26.082;2023-11-22T07:23:42;100301.06;;;13.85;87.74
9335;BME280;4706;41.844;26.082;2023-11-22T07:26:10;100292.13;;;13.80;87.58
9335;BME280;4706;41.844;26.082;2023-11-22T07:28:36;100312.59;;;13.88;87.77
9335;BME280;4706;41.844;26.082;2023-11-22T07:31:03;100323.66;;;13.88;87.39
9335;BME280;4706;41.844;26.082;2023-11-22T07:33:31;100321.03;;;13.91;86.92
9335;BME280;4706;41.844;26.082;2023-11-22T07:35:56;100329.38;;;13.82;87.37
9335;BME280;4706;41.844;26.082;2023-11-22T07:38:22;100307.28;;;13.65;87.82
9335;BME280;4706;41.844;26.082;2023-11-22T07:40:48;100334.44;;;13.63;88.62
9335;BME280;4706;41.844;26.082;2023-11-22T07:43:14;100335.75;;;13.66;88.95
9335;BME280;4706;41.844;26.082;2023-11-22T07:45:40;100336.22;;;13.68;89.42
9335;BME280;4706;41.844;26.082;2023-11-22T07:48:05;100340.09;;;13.75;89.57
9335;BME280;4706;41.844;26.082;2023-11-22T07:50:31;100327.78;;;13.73;89.05
9335;BME280;4706;41.844;26.082;2023-11-22T07:52:57;100343.53;;;13.81;90.05
9335;BME280;4706;41.844;26.082;2023-11-22T07:55:23;100358.13;;;13.90;90.26
9335;BME280;4706;41.844;26.082;2023-11-22T07:57:49;100356.97;;;13.91;90.60
9335;BME280;4706;41.844;26.082;2023-11-22T08:00:18;100354.38;;;13.95;91.43
9335;BME280;4706;41.844;26.082;2023-11-22T08:02:48;100365.09;;;14.05;91.55
9335;BME280;4706;41.844;26.082;2023-11-22T08:05:21;100372.91;;;14.03;91.41
9335;BME280;4706;41.844;26.082;2023-11-22T08:07:49;100371.28;;;14.11;91.18
9335;BME280;4706;41.844;26.082;2023-11-22T08:10:14;100359.09;;;14.03;91.58
9335;BME280;4706;41.844;26.082;2023-11-22T08:12:47;100367.25;;;13.99;91.69
9335;BME280;4706;41.844;26.082;2023-11-22T08:15:15;100361.84;;;13.94;92.12
9335;BME280;4706;41.844;26.082;2023-11-22T08:17:42;100355.38;;;13.90;92.26
9335;BME280;4706;41.844;26.082;2023-11-22T08:20:09;100353.09;;;13.92;92.26
9335;BME280;4706;41.844;26.082;2023-11-22T08:22:39;100355.06;;;13.92;92.76
9335;BME280;4706;41.844;26.082;2023-11-22T08:25:09;100356.03;;;13.96;92.87
9335;BME280;4706;41.844;26.082;2023-11-22T08:27:39;100356.19;;;13.99;93.34
9335;BME280;4706;41.844;26.082;2023-11-22T08:30:07;100352.28;;;13.92;93.75
9335;BME280;4706;41.844;26.082;2023-11-22T08:32:45;100353.59;;;13.85;93.94
9335;BME280;4706;41.844;26.082;2023-11-22T08:35:16;100352.13;;;13.88;94.89
9335;BME280;4706;41.844;26.082;2023-11-22T08:37:42;100361.22;;;13.89;94.74
9335;BME280;4706;41.844;26.082;2023-11-22T08:40:09;100363.00;;;13.93;94.89
9335;BME280;4706;41.844;26.082;2023-11-22T08:42:36;100360.25;;;13.93;95.34
9335;BME280;4706;41.844;26.082;2023-11-22T08:45:02;100345.59;;;13.84;95.60
9335;BME280;4706;41.844;26.082;2023-11-22T08:47:29;100364.81;;;13.89;95.61
9335;BME280;4706;41.844;26.082;2023-11-22T08:49:56;100358.47;;;13.89;95.02
9335;BME280;4706;41.844;26.082;2023-11-22T08:52:23;100347.06;;;13.90;94.16
9335;BME280;4706;41.844;26.082;2023-11-22T08:54:49;100376.19;;;13.96;93.61
9335;BME280;4706;41.844;26.082;2023-11-22T08:57:17;100351.28;;;13.96;93.49
9335;BME280;4706;41.844;26.082;2023-11-22T08:59:43;100349.28;;;14.23;94.49
9335;BME280;4706;41.844;26.082;2023-11-22T09:02:08;100364.00;;;14.44;95.25
9335;BME280;4706;41.844;26.082;2023-11-22T09:04:35;100359.25;;;14.53;92.10
9335;BME280;4706;41.844;26.082;2023-11-22T09:07:00;100348.19;;;14.53;91.39
9335;BME280;4706;41.844;26.082;2023-11-22T09:09:26;100363.28;;;14.65;91.87
9335;BME280;4706;41.844;26.082;2023-11-22T09:11:59;100359.13;;;14.79;89.37
9335;BME280;4706;41.844;26.082;2023-11-22T09:14:25;100338.13;;;14.78;90.58
9335;BME280;4706;41.844;26.082;2023-11-22T09:16:51;100341.44;;;14.93;90.48
9335;BME280;4706;41.844;26.082;2023-11-22T09:19:24;100341.94;;;14.95;90.40
9335;BME280;4706;41.844;26.082;2023-11-22T09:21:51;100344.19;;;15.01;89.39
9335;BME280;4706;41.844;26.082;2023-11-22T09:24:16;100340.59;;;15.01;89.22
9335;BME280;4706;41.844;26.082;2023-11-22T09:26:42;100343.56;;;14.96;90.05
9335;BME280;4706;41.844;26.082;2023-11-22T09:29:10;100351.00;;;15.04;90.47
9335;BME280;4706;41.844;26.082;2023-11-22T09:31:39;100361.59;;;15.02;90.56
9335;BME280;4706;41.844;26.082;2023-11-22T09:34:05;100347.81;;;14.93;89.83
9335;BME280;4706;41.844;26.082;2023-11-22T09:36:30;100352.34;;;14.98;91.12
9335;BME280;4706;41.844;26.082;2023-11-22T09:38:59;100348.06;;;15.00;91.52
9335;BME280;4706;41.844;26.082;2023-11-22T09:41:25;100337.00;;;15.00;91.93
9335;BME280;4706;41.844;26.082;2023-11-22T09:43:53;100338.09;;;15.08;92.22
9335;BME280;4706;41.844;26.082;2023-11-22T09:46:19;100343.06;;;15.23;89.29
9335;BME280;4706;41.844;26.082;2023-11-22T09:48:47;100352.69;;;15.17;90.57
9335;BME280;4706;41.844;26.082;2023-11-22T09:51:23;100353.50;;;15.18;91.56
9335;BME280;4706;41.844;26.082;2023-11-22T09:53:56;100345.97;;;15.27;91.18
9335;BME280;4706;41.844;26.082;2023-11-22T09:56:23;100344.72;;;15.37;90.19
9335;BME280;4706;41.844;26.082;2023-11-22T09:58:54;100318.84;;;15.33;90.79
9335;BME280;4706;41.844;26.082;2023-11-22T10:01:24;100324.97;;;15.38;90.09
9335;BME280;4706;41.844;26.082;2023-11-22T10:03:54;100318.09;;;15.44;89.21
9335;BME280;4706;41.844;26.082;2023-11-22T10:06:20;100332.88;;;15.48;88.96
9335;BME280;4706;41.844;26.082;2023-11-22T10:08:46;100336.94;;;15.51;88.39
9335;BME280;4706;41.844;26.082;2023-11-22T10:11:18;100336.81;;;15.47;88.10
9335;BME280;4706;41.844;26.082;2023-11-22T10:13:47;100347.41;;;15.45;88.66
9335;BME280;4706;41.844;26.082;2023-11-22T10:16:13;100332.44;;;15.46;88.80
9335;BME280;4706;41.844;26.082;2023-11-22T10:18:42;100301.72;;;15.30;88.74
9335;BME280;4706;41.844;26.082;2023-11-22T10:21:28;100325.84;;;15.51;88.19
9335;BME280;4706;41.844;26.082;2023-11-22T10:24:01;100336.84;;;15.60;88.39
9335;BME280;4706;41.844;26.082;2023-11-22T10:26:28;100334.56;;;15.62;88.14
9335;BME280;4706;41.844;26.082;2023-11-22T10:28:54;100333.41;;;15.63;87.49
9335;BME280;4706;41.844;26.082;2023-11-22T10:31:23;100338.59;;;15.64;87.91
9335;BME280;4706;41.844;26.082;2023-11-22T10:33:49;100302.81;;;15.38;88.14
9335;BME280;4706;41.844;26.082;2023-11-22T10:36:16;100335.38;;;15.62;88.45
9335;BME280;4706;41.844;26.082;2023-11-22T10:38:47;100330.25;;;15.73;86.93
9335;BME280;4706;41.844;26.082;2023-11-22T10:41:13;100325.03;;;15.71;87.25
9335;BME280;4706;41.844;26.082;2023-11-22T10:43:41;100330.00;;;15.66;87.50
9335;BME280;4706;41.844;26.082;2023-11-22T10:46:07;100330.38;;;15.76;87.46
9335;BME280;4706;41.844;26.082;2023-11-22T10:48:36;100317.06;;;15.70;87.62
9335;BME280;4706;41.844;26.082;2023-11-22T10:51:03;100316.06;;;15.87;86.95
9335;BME280;4706;41.844;26.082;2023-11-22T10:53:34;100319.31;;;15.89;87.04
9335;BME280;4706;41.844;26.082;2023-11-22T10:56:19;100327.34;;;16.02;86.72
9335;BME280;4706;41.844;26.082;2023-11-22T10:58:46;100323.66;;;16.11;86.89
9335;BME280;4706;41.844;26.082;2023-11-22T11:01:14;100325.50;;;16.19;86.59
9335;BME280;4706;41.844;26.082;2023-11-22T11:03:46;100330.81;;;16.24;86.68
9335;BME280;4706;41.844;26.082;2023-11-22T11:06:15;100326.06;;;16.24;86.79
9335;BME280;4706;41.844;26.082;2023-11-22T11:08:45;100307.94;;;16.27;86.53
9335;BME280;4706;41.844;26.082;2023-11-22T11:11:11;100310.84;;;16.43;85.79
9335;BME280;4706;41.844;26.082;2023-11-22T11:13:39;100318.03;;;16.44;85.67
9335;BME280;4706;41.844;26.082;2023-11-22T11:16:06;100310.84;;;16.43;85.43
9335;BME280;4706;41.844;26.082;2023-11-22T11:18:32;100310.50;;;16.44;85.12
9335;BME280;4706;41.844;26.082;2023-11-22T11:20:58;100304.94;;;16.32;85.06
9335;BME280;4706;41.844;26.082;2023-11-22T11:23:28;100306.88;;;16.19;85.33
9335;BME280;4706;41.844;26.082;2023-11-22T11:25:59;100318.34;;;16.18;85.76
9335;BME280;4706;41.844;26.082;2023-11-22T11:28:51;100329.31;;;16.14;86.16
9335;BME280;4706;41.844;26.082;2023-11-22T11:31:21;100284.81;;;16.11;85.57
9335;BME280;4706;41.844;26.082;2023-11-22T11:36:27;100310.03;;;16.30;86.10
9335;BME280;4706;41.844;26.082;2023-11-22T11:38:54;100303.88;;;16.12;87.88
9335;BME280;4706;41.844;26.082;2023-11-22T11:41:34;100310.44;;;15.95;89.24
9335;BME280;4706;41.844;26.082;2023-11-22T11:44:04;100309.50;;;15.91;90.17
9335;BME280;4706;41.844;26.082;2023-11-22T11:46:32;100309.03;;;15.89;90.85
9335;BME280;4706;41.844;26.082;2023-11-22T11:48:58;100307.19;;;15.93;90.65
9335;BME280;4706;41.844;26.082;2023-11-22T11:51:26;100313.91;;;16.05;90.52
9335;BME280;4706;41.844;26.082;2023-11-22T11:53:53;100301.22;;;16.03;90.55
9335;BME280;4706;41.844;26.082;2023-11-22T11:56:19;100302.50;;;16.06;90.92
9335;BME280;4706;41.844;26.082;2023-11-22T11:58:47;100309.78;;;16.11;90.87
9335;BME280;4706;41.844;26.082;2023-11-22T12:01:16;100311.88;;;16.14;91.22
9335;BME280;4706;41.844;26.082;2023-11-22T12:03:45;100292.88;;;16.03;91.37
9335;BME280;4706;41.844;26.082;2023-11-22T12:06:15;100315.22;;;16.19;90.91
9335;BME280;4706;41.844;26.082;2023-11-22T12:08:41;100312.44;;;16.19;90.91
9335;BME280;4706;41.844;26.082;2023-11-22T12:11:07;100300.97;;;16.09;90.65
9335;BME280;4706;41.844;26.082;2023-11-22T12:13:33;100311.25;;;16.08;90.96
9335;BME280;4706;41.844;26.082;2023-11-22T12:16:00;100305.16;;;16.02;90.83
9335;BME280;4706;41.844;26.082;2023-11-22T12:18:28;100311.94;;;16.05;91.03
9335;BME280;4706;41.844;26.082;2023-11-22T12:20:58;100328.84;;;16.12;91.20
9335;BME280;4706;41.844;26.082;2023-11-22T12:23:24;100322.84;;;16.10;91.21
9335;BME280;4706;41.844;26.082;2023-11-22T12:25:57;100323.41;;;16.03;91.51
9335;BME280;4706;41.844;26.082;2023-11-22T12:28:27;100327.78;;;16.05;91.18
9335;BME280;4706;41.844;26.082;2023-11-22T12:30:52;100317.16;;;16.07;90.94
9335;BME280;4706;41.844;26.082;2023-11-22T12:33:19;100317.38;;;16.01;91.25
9335;BME280;4706;41.844;26.082;2023-11-22T12:35:46;100312.06;;;15.96;91.65
9335;BME280;4706;41.844;26.082;2023-11-22T12:38:11;100311.81;;;15.89;92.21
9335;BME280;4706;41.844;26.082;2023-11-22T12:40:37;100318.50;;;15.88;92.75
9335;BME280;4706;41.844;26.082;2023-11-22T12:43:03;100320.59;;;15.91;92.92
9335;BME280;4706;41.844;26.082;2023-11-22T12:45:30;100313.41;;;15.90;92.63
9335;BME280;4706;41.844;26.082;2023-11-22T12:47:56;100282.63;;;15.71;92.85
9335;BME280;4706;41.844;26.082;2023-11-22T12:50:38;100310.19;;;15.88;93.51
9335;BME280;4706;41.844;26.082;2023-11-22T12:53:11;100301.25;;;15.83;94.39
9335;BME280;4706;41.844;26.082;2023-11-22T12:55:47;100305.81;;;15.87;95.66
9335;BME280;4706;41.844;26.082;2023-11-22T12:58:18;100297.94;;;15.89;96.19